Time;durP1;ratioP1;P1;durP2;ratioP2;P2;SDS_P1;SDS_P2;PMS_P1;PMS_P2;Temp;Humidity;BMP_temperature;BMP_pressure;BME280_temperature;BME280_humidity;BME280_pressure;Samples;Min_cycle;Max_cycle;Signal;HPM_P1;HPM_P2
2022/08/19 00:00:23;;;;;;;4.85;2.03;;;29.00;54.10;;;;;;10393505;28;20495;-41
2022/08/19 00:05:25;;;;;;;7.05;2.00;;;29.00;54.20;;;;;;10412012;28;20057;-43
2022/08/19 00:10:29;;;;;;;5.53;2.15;;;29.00;54.20;;;;;;10400905;28;20045;-41
2022/08/19 00:15:30;;;;;;;5.32;1.70;;;29.00;54.30;;;;;;10392805;28;20053;-39
2022/08/19 00:20:32;;;;;;;6.93;2.15;;;28.90;54.30;;;;;;10405658;28;20482;-41
2022/08/19 00:25:36;;;;;;;4.80;2.00;;;28.90;54.30;;;;;;10397154;28;20116;-38
2022/08/19 00:30:38;;;;;;;4.38;1.88;;;28.80;54.30;;;;;;10409629;28;20453;-43
2022/08/19 00:35:39;;;;;;;8.25;2.08;;;28.80;54.40;;;;;;10411260;28;20136;-34
2022/08/19 00:40:46;;;;;;;4.80;1.80;;;28.80;54.40;;;;;;10402974;28;20095;-40
2022/08/19 00:45:49;;;;;;;3.63;1.55;;;28.80;54.40;;;;;;10408021;28;20046;-38
2022/08/19 00:50:55;;;;;;;2.70;1.70;;;28.70;54.50;;;;;;10398210;28;20052;-40
2022/08/19 00:56:01;;;;;;;3.55;1.58;;;28.70;55.20;;;;;;10401858;28;20051;-40
2022/08/19 01:01:04;;;;;;;2.80;1.58;;;28.70;54.60;;;;;;10403774;28;20049;-36
2022/08/19 01:06:07;;;;;;;1.75;1.35;;;28.60;54.60;;;;;;10405968;28;20052;-37
2022/08/19 01:11:10;;;;;;;5.13;1.15;;;28.60;54.60;;;;;;10382800;28;20341;-40
2022/08/19 01:16:12;;;;;;;6.10;2.00;;;28.60;54.70;;;;;;10402663;28;20097;-39
2022/08/19 01:21:22;;;;;;;1.60;1.33;;;28.50;54.70;;;;;;10399437;28;20045;-33
2022/08/19 01:26:28;;;;;;;3.40;1.85;;;28.50;54.80;;;;;;10400984;28;20128;-40
2022/08/19 01:31:30;;;;;;;2.63;1.92;;;28.50;54.90;;;;;;10400123;28;20049;-37
2022/08/19 01:36:36;;;;;;;2.20;1.70;;;28.40;54.80;;;;;;10396173;28;20045;-43
2022/08/19 01:41:39;;;;;;;2.65;1.90;;;28.40;55.00;;;;;;10399708;28;20655;-43
2022/08/19 01:46:43;;;;;;;1.67;1.42;;;28.40;55.00;;;;;;10391997;28;20076;-43
2022/08/19 01:51:45;;;;;;;2.35;2.15;;;28.40;55.10;;;;;;10394486;28;20482;-36
2022/08/19 01:56:48;;;;;;;2.97;1.80;;;28.30;55.10;;;;;;10400423;28;20053;-42
2022/08/19 02:01:50;;;;;;;2.90;2.15;;;28.30;55.10;;;;;;10397258;28;20065;-42
2022/08/19 02:06:52;;;;;;;3.08;2.53;;;28.30;55.30;;;;;;10400740;28;20069;-41
2022/08/19 02:11:55;;;;;;;3.22;2.45;;;28.20;55.20;;;;;;10402544;28;20087;-38
2022/08/19 02:16:57;;;;;;;4.03;2.65;;;28.20;55.40;;;;;;10404409;28;20085;-40
2022/08/19 02:21:59;;;;;;;4.53;2.67;;;28.10;55.30;;;;;;10400229;28;20662;-41
2022/08/19 02:27:02;;;;;;;4.40;2.40;;;28.20;55.40;;;;;;10398781;28;20053;-42
2022/08/19 02:32:05;;;;;;;2.90;2.33;;;28.10;55.50;;;;;;10406306;28;20529;-38
2022/08/19 02:38:24;;;;;;;3.28;2.50;;;28.10;55.50;;;;;;10402394;28;20092;-39
2022/08/19 02:42:31;;;;;;;4.00;2.47;;;28.10;55.60;;;;;;10409504;28;21028;-43
2022/08/19 02:47:33;;;;;;;4.35;2.58;;;28.00;55.70;;;;;;10409659;28;20045;-41
2022/08/19 02:52:35;;;;;;;2.75;2.50;;;28.00;56.30;;;;;;10390597;28;20078;-41
2022/08/19 02:57:38;;;;;;;2.90;2.25;;;28.00;55.80;;;;;;10395659;28;20069;-39
2022/08/19 03:02:40;;;;;;;3.92;2.38;;;28.00;55.90;;;;;;10400777;28;20125;-43
2022/08/19 03:07:42;;;;;;;6.53;2.92;;;27.90;55.90;;;;;;10395123;28;20479;-39
2022/08/19 03:12:46;;;;;;;2.72;2.45;;;27.90;55.90;;;;;;10402530;28;20115;-38
2022/08/19 03:17:47;;;;;;;3.88;2.50;;;27.90;56.00;;;;;;10403907;28;20045;-42
2022/08/19 03:22:49;;;;;;;4.43;2.65;;;27.90;56.10;;;;;;10427484;28;20075;-45
2022/08/19 03:27:52;;;;;;;3.53;2.65;;;27.80;56.10;;;;;;10410852;28;20395;-39
2022/08/19 03:32:54;;;;;;;4.20;2.67;;;27.80;56.10;;;;;;10404589;28;20104;-43
2022/08/19 03:37:57;;;;;;;14.80;8.60;;;27.80;56.20;;;;;;10400316;28;20413;-43
2022/08/19 03:43:00;;;;;;;4.32;3.50;;;27.60;56.50;;;;;;10391452;28;20058;-42
2022/08/19 03:48:02;;;;;;;4.13;3.17;;;27.70;56.40;;;;;;10405223;28;20045;-43
2022/08/19 03:53:04;;;;;;;5.72;3.47;;;27.70;56.40;;;;;;10404752;28;20037;-41
2022/08/19 03:58:07;;;;;;;6.25;4.30;;;27.60;56.20;;;;;;10412329;28;20045;-41
2022/08/19 04:03:09;;;;;;;7.65;3.83;;;27.60;56.60;;;;;;10410342;28;20041;-42
2022/08/19 04:08:11;;;;;;;4.55;3.70;;;27.50;56.60;;;;;;10412465;28;20206;-42
2022/08/19 04:13:14;;;;;;;5.68;3.90;;;27.60;56.50;;;;;;10413734;28;20134;-43
2022/08/19 04:18:17;;;;;;;4.22;3.72;;;27.60;56.50;;;;;;10410467;28;20095;-40
2022/08/19 04:23:19;;;;;;;4.60;3.90;;;27.60;56.60;;;;;;10402674;28;20402;-38
2022/08/19 04:28:23;;;;;;;8.02;3.95;;;27.60;56.50;;;;;;10404049;28;20049;-41
2022/08/19 04:33:28;;;;;;;5.90;4.30;;;27.60;56.70;;;;;;10405889;28;20119;-41
2022/08/19 04:38:30;;;;;;;5.22;3.85;;;27.60;56.90;;;;;;10402511;28;20451;-42
2022/08/19 04:43:34;;;;;;;9.18;5.50;;;27.60;57.00;;;;;;10403742;28;20418;-40
2022/08/19 04:48:36;;;;;;;7.63;5.63;;;27.60;57.00;;;;;;10404605;28;20145;-42
2022/08/19 04:53:40;;;;;;;9.85;5.93;;;27.50;57.10;;;;;;10405962;28;20140;-37
2022/08/19 04:58:45;;;;;;;11.93;6.22;;;27.50;57.10;;;;;;10395420;28;20077;-42
2022/08/19 05:03:47;;;;;;;11.95;6.15;;;27.50;57.10;;;;;;10388444;28;20509;-39
2022/08/19 05:08:50;;;;;;;10.15;4.90;;;27.50;57.30;;;;;;10394084;28;20498;-43
2022/08/19 05:13:53;;;;;;;9.15;4.88;;;27.50;57.40;;;;;;10397116;28;20342;-42
2022/08/19 05:24:16;;;;;;;11.02;4.97;;;27.50;57.50;;;;;;10397253;28;20676;-33
2022/08/19 05:29:22;;;;;;;7.55;4.55;;;27.50;57.50;;;;;;10403616;28;20554;-41
2022/08/19 05:34:25;;;;;;;10.18;4.25;;;27.40;57.30;;;;;;10396454;28;20144;-43
2022/08/19 05:39:30;;;;;;;7.85;3.70;;;27.50;57.50;;;;;;10393621;28;20509;-41
2022/08/19 05:44:37;;;;;;;11.07;4.70;;;27.40;57.40;;;;;;10406088;28;20053;-39
2022/08/19 05:49:39;;;;;;;8.15;4.07;;;27.50;57.40;;;;;;10395294;28;20056;-42
2022/08/19 05:54:42;;;;;;;15.73;4.85;;;27.50;57.20;;;;;;10392463;28;20160;-37
2022/08/19 05:59:51;;;;;;;4.22;3.05;;;27.60;57.30;;;;;;10382730;28;20065;-41
2022/08/19 06:04:53;;;;;;;11.25;3.55;;;27.60;57.30;;;;;;10398191;28;20057;-42
2022/08/19 06:09:55;;;;;;;10.75;4.03;;;27.60;57.30;;;;;;10405890;28;20103;-39
2022/08/19 06:15:00;;;;;;;10.43;4.18;;;27.60;57.30;;;;;;10400406;28;20408;-44
2022/08/19 06:20:02;;;;;;;13.98;3.97;;;27.60;57.50;;;;;;10400692;28;20148;-32
2022/08/19 06:25:04;;;;;;;12.02;3.67;;;27.60;57.50;;;;;;10397447;28;20084;-43
2022/08/19 06:30:09;;;;;;;10.23;4.20;;;27.60;57.60;;;;;;10397494;28;20132;-37
2022/08/19 06:35:13;;;;;;;5.95;3.20;;;27.60;57.80;;;;;;10399357;28;20085;-39
2022/08/19 06:40:15;;;;;;;11.35;3.30;;;27.60;57.90;;;;;;10391111;28;20060;-41
2022/08/19 06:45:20;;;;;;;9.63;3.47;;;27.60;57.80;;;;;;10398785;28;20115;-39
2022/08/19 06:50:22;;;;;;;7.63;3.58;;;27.60;57.90;;;;;;10392738;28;20489;-40
2022/08/19 06:55:24;;;;;;;6.40;3.50;;;27.60;58.00;;;;;;10409530;28;20046;-42
2022/08/19 07:00:27;;;;;;;9.52;3.13;;;27.60;58.00;;;;;;10417022;28;20107;-42
2022/08/19 07:05:29;;;;;;;11.73;3.53;;;27.40;58.60;;;;;;10394595;28;20131;-41
2022/08/19 07:10:32;;;;;;;10.60;4.78;;;27.00;59.80;;;;;;10401618;28;20058;-41
2022/08/19 07:15:37;;;;;;;9.30;4.38;;;25.80;63.90;;;;;;10396135;28;20441;-42
2022/08/19 07:20:39;;;;;;;9.95;3.90;;;26.30;61.40;;;;;;10410270;28;20501;-41
2022/08/19 07:25:42;;;;;;;10.57;3.67;;;26.40;61.30;;;;;;10398839;28;20049;-44
2022/08/19 07:30:45;;;;;;;11.43;4.32;;;26.40;61.20;;;;;;10404385;28;20129;-40
2022/08/19 07:35:47;;;;;;;10.00;3.92;;;25.10;65.60;;;;;;10396911;28;20402;-41
2022/08/19 07:40:51;;;;;;;8.82;3.25;;;25.20;64.30;;;;;;10398988;28;20093;-44
2022/08/19 07:45:56;;;;;;;6.15;2.92;;;25.20;64.20;;;;;;10402187;28;20053;-41
2022/08/19 07:51:01;;;;;;;8.45;3.95;;;25.40;63.70;;;;;;10410264;28;20060;-44
2022/08/19 07:56:04;;;;;;;5.55;3.65;;;25.10;64.80;;;;;;10408918;28;20071;-38
2022/08/19 08:01:10;;;;;;;9.18;4.05;;;26.50;60.60;;;;;;10405647;28;20692;-41
2022/08/19 08:11:32;;;;;;;7.30;3.88;;;26.40;61.70;;;;;;10399390;28;20045;-40
2022/08/19 08:16:37;;;;;;;15.95;3.92;;;26.00;62.30;;;;;;10402932;28;20049;-37
2022/08/19 08:21:39;;;;;;;9.90;4.65;;;25.10;64.40;;;;;;10426898;28;20072;-35
2022/08/19 08:26:42;;;;;;;5.75;3.17;;;25.10;65.10;;;;;;10403980;28;20050;-43
2022/08/19 08:31:46;;;;;;;11.18;3.75;;;26.20;62.30;;;;;;10397385;28;20552;-38
2022/08/19 08:36:48;;;;;;;6.25;2.90;;;25.50;66.10;;;;;;10401532;28;20060;-39
2022/08/19 08:41:57;;;;;;;4.65;2.50;;;25.60;63.70;;;;;;10402038;28;21306;-40
2022/08/19 08:47:03;;;;;;;6.50;3.47;;;25.30;65.40;;;;;;10394928;28;20077;-41
2022/08/19 08:52:07;;;;;;;7.72;3.08;;;24.30;69.40;;;;;;10404770;28;20068;-40
2022/08/19 08:57:14;;;;;;;5.55;2.33;;;25.40;66.50;;;;;;10398238;28;20101;-41
2022/08/19 09:02:18;;;;;;;6.20;2.97;;;24.10;69.50;;;;;;10409889;28;20509;-42
2022/08/19 09:07:27;;;;;;;11.13;2.90;;;24.70;68.40;;;;;;10402395;28;20050;-42
2022/08/19 09:12:38;;;;;;;7.25;2.60;;;25.20;65.90;;;;;;10402599;28;20049;-42
2022/08/19 09:17:41;;;;;;;8.20;3.13;;;25.30;64.60;;;;;;10390658;28;20045;-40
2022/08/19 09:22:44;;;;;;;7.88;2.30;;;24.90;65.40;;;;;;10400799;28;20099;-38
2022/08/19 09:27:46;;;;;;;6.57;2.60;;;26.00;62.20;;;;;;10399428;28;20049;-41
2022/08/19 09:32:52;;;;;;;5.13;2.00;;;25.10;65.30;;;;;;10397495;28;20073;-39
2022/08/19 09:37:56;;;;;;;5.70;2.03;;;25.80;65.30;;;;;;10401023;28;20515;-42
2022/08/19 09:43:02;;;;;;;6.70;2.17;;;24.80;67.20;;;;;;10391471;28;20053;-42
2022/08/19 09:48:05;;;;;;;6.18;2.40;;;25.40;65.20;;;;;;10398703;28;20041;-41
2022/08/19 09:53:08;;;;;;;2.92;1.50;;;26.20;62.80;;;;;;10401470;28;20048;-42
2022/08/19 09:58:11;;;;;;;6.57;1.80;;;26.00;63.60;;;;;;10394445;28;20080;-39
2022/08/19 10:03:14;;;;;;;3.92;1.75;;;24.80;68.40;;;;;;10397029;28;20076;-41
2022/08/19 10:08:17;;;;;;;4.72;2.35;;;26.10;62.10;;;;;;10392150;28;20556;-41
2022/08/19 10:13:24;;;;;;;4.05;1.60;;;24.90;67.90;;;;;;10398020;28;20042;-42
2022/08/19 10:18:28;;;;;;;5.15;1.88;;;26.20;64.50;;;;;;10380917;28;20103;-41
2022/08/19 10:23:30;;;;;;;5.28;1.70;;;26.50;61.40;;;;;;10385634;28;20049;-43
2022/08/19 10:28:32;;;;;;;2.60;1.20;;;26.10;63.90;;;;;;10387583;28;20057;-40
2022/08/19 10:33:37;;;;;;;2.60;1.35;;;26.40;62.20;;;;;;10406137;28;20049;-44
2022/08/19 10:38:39;;;;;;;2.47;1.27;;;26.60;61.10;;;;;;10398023;28;20462;-41
2022/08/19 10:43:49;;;;;;;3.15;1.40;;;26.80;62.30;;;;;;10404530;28;20167;-43
2022/08/19 10:48:54;;;;;;;6.65;1.52;;;26.80;60.60;;;;;;10387843;28;20391;-41
2022/08/19 10:53:56;;;;;;;7.35;1.60;;;25.60;66.50;;;;;;10394220;28;20081;-41
2022/08/19 10:58:59;;;;;;;4.95;1.55;;;25.20;66.40;;;;;;10399263;28;20146;-45
2022/08/19 11:04:04;;;;;;;2.63;0.95;;;24.60;68.50;;;;;;10406749;28;20056;-43
2022/08/19 11:09:06;;;;;;;9.98;1.85;;;25.30;65.60;;;;;;10409011;28;20512;-41
2022/08/19 11:14:09;;;;;;;3.50;1.50;;;25.10;69.30;;;;;;10401431;28;20136;-40
2022/08/19 11:19:14;;;;;;;2.70;1.15;;;26.20;63.20;;;;;;10405869;28;20093;-38
2022/08/19 11:24:19;;;;;;;1.48;1.05;;;25.90;65.00;;;;;;10405897;28;20049;-39
2022/08/19 11:29:25;;;;;;;2.38;1.40;;;26.50;62.50;;;;;;10402342;28;20065;-43
2022/08/19 11:34:29;;;;;;;3.42;1.52;;;27.20;60.90;;;;;;10398845;28;20052;-42
2022/08/19 11:39:33;;;;;;;8.70;1.73;;;27.30;61.90;;;;;;10398340;28;20077;-40
2022/08/19 11:44:35;;;;;;;3.75;1.33;;;27.40;60.60;;;;;;10395784;28;20779;-39
2022/08/19 11:49:38;;;;;;;2.28;1.40;;;26.60;63.20;;;;;;10394608;28;20057;-41
2022/08/19 11:54:40;;;;;;;3.40;1.20;;;27.00;62.00;;;;;;10404172;28;20072;-42
2022/08/19 11:59:42;;;;;;;3.75;1.42;;;27.10;62.00;;;;;;10393491;28;20053;-41
2022/08/19 12:04:45;;;;;;;3.92;1.80;;;26.80;64.10;;;;;;10392832;28;20042;-44
2022/08/19 12:09:48;;;;;;;3.50;1.27;;;27.10;61.80;;;;;;10384888;28;20045;-39
2022/08/19 12:14:56;;;;;;;3.05;1.38;;;27.70;60.10;;;;;;10394396;28;20107;-39
2022/08/19 12:19:59;;;;;;;1.10;1.00;;;27.70;59.80;;;;;;10399245;28;20049;-42
2022/08/19 12:25:01;;;;;;;1.33;1.15;;;27.60;60.20;;;;;;10377775;28;20072;-40
2022/08/19 12:30:03;;;;;;;2.17;1.08;;;27.80;59.60;;;;;;10379945;28;20073;-41
2022/08/19 12:35:08;;;;;;;1.55;0.80;;;27.30;60.70;;;;;;10388087;28;20041;-38
2022/08/19 12:40:11;;;;;;;1.08;0.73;;;27.60;59.50;;;;;;10396719;28;20057;-42
2022/08/19 12:45:14;;;;;;;4.43;1.08;;;27.20;61.10;;;;;;10416659;28;20053;-40
2022/08/19 12:50:17;;;;;;;2.00;0.85;;;27.70;59.20;;;;;;10403581;28;20053;-41
2022/08/19 12:55:19;;;;;;;1.17;0.82;;;27.40;60.40;;;;;;10397922;28;20088;-40
2022/08/19 13:00:22;;;;;;;1.25;0.85;;;27.70;59.40;;;;;;10409082;28;20061;-36
2022/08/19 13:05:29;;;;;;;1.63;1.00;;;27.40;59.90;;;;;;10402402;28;20042;-42
2022/08/19 13:10:34;;;;;;;2.05;1.20;;;27.70;60.10;;;;;;10401541;28;20076;-41
2022/08/19 13:15:39;;;;;;;1.60;0.80;;;27.50;60.00;;;;;;10397704;28;20505;-41
2022/08/19 13:20:42;;;;;;;2.80;0.82;;;27.50;59.80;;;;;;10393403;28;20106;-38
2022/08/19 13:25:44;;;;;;;2.22;1.13;;;27.50;59.60;;;;;;10399668;28;20069;-38
2022/08/19 13:36:09;;;;;;;;;;;27.00;61.40;;;;;;10398324;28;20042;-41
2022/08/19 13:41:11;;;;;;;2.00;0.73;;;27.90;59.40;;;;;;10402972;28;19929;-43
2022/08/19 13:46:14;;;;;;;2.45;1.20;;;28.60;57.60;;;;;;10401069;28;20465;-38
2022/08/19 13:51:18;;;;;;;3.13;1.00;;;28.60;57.90;;;;;;10399196;28;20041;-38
2022/08/19 13:56:20;;;;;;;1.83;0.88;;;28.00;59.20;;;;;;10403489;28;20079;-38
2022/08/19 14:01:24;;;;;;;1.75;1.10;;;28.20;58.70;;;;;;10393923;28;20045;-39
2022/08/19 14:06:27;;;;;;;5.70;1.73;;;28.30;59.10;;;;;;10394550;28;20095;-37
2022/08/19 14:11:29;;;;;;;1.35;0.73;;;27.50;61.10;;;;;;10389952;28;20089;-42
2022/08/19 14:16:31;;;;;;;1.65;0.70;;;28.20;58.90;;;;;;10398757;28;20486;-40
2022/08/19 14:21:35;;;;;;;1.85;1.17;;;28.20;59.50;;;;;;10395983;28;20200;-41
2022/08/19 14:26:38;;;;;;;8.23;1.63;;;28.00;60.10;;;;;;10379179;28;20045;-30
2022/08/19 14:31:42;;;;;;;2.42;1.30;;;26.70;65.90;;;;;;10396993;28;20076;-38
2022/08/19 14:36:45;;;;;;;5.60;1.45;;;26.50;65.90;;;;;;10401530;28;20072;-38
2022/08/19 14:41:47;;;;;;;15.73;2.40;;;26.20;68.20;;;;;;10388600;28;20074;-39
2022/08/19 14:46:49;;;;;;;8.25;2.97;;;25.90;68.10;;;;;;10379057;28;20483;-39
2022/08/19 14:51:52;;;;;;;9.68;3.63;;;26.50;68.20;;;;;;10390275;28;20099;-42
2022/08/19 14:56:54;;;;;;;7.13;2.83;;;27.50;63.70;;;;;;10388046;28;20049;-39
2022/08/19 15:01:56;;;;;;;6.65;2.53;;;28.20;63.30;;;;;;10394489;28;20112;-43
2022/08/19 15:06:59;;;;;;;3.97;1.48;;;28.00;61.30;;;;;;10380164;28;20085;-39
2022/08/19 15:12:02;;;;;;;4.72;2.03;;;25.80;68.40;;;;;;10398642;28;20401;-40
2022/08/19 15:17:04;;;;;;;4.97;1.73;;;27.00;64.40;;;;;;10404290;28;20121;-40
2022/08/19 15:22:08;;;;;;;2.67;1.17;;;27.80;64.20;;;;;;10399771;28;20046;-41
2022/08/19 15:27:09;;;;;;;5.68;1.55;;;28.20;60.20;;;;;;10396151;28;20049;-41
2022/08/19 15:32:11;;;;;;;1.30;0.75;;;28.00;65.60;;;;;;10390063;28;20479;-42
2022/08/19 15:37:14;;;;;;;2.70;1.05;;;27.60;61.80;;;;;;10383067;28;20466;-40
2022/08/19 15:42:16;;;;;;;3.03;1.10;;;27.50;63.90;;;;;;10403652;28;20150;-43
2022/08/19 15:47:19;;;;;;;4.15;0.95;;;26.70;64.80;;;;;;10404161;28;20420;-41
2022/08/19 15:52:22;;;;;;;1.75;1.00;;;27.60;63.40;;;;;;10406270;28;20056;-36
2022/08/19 16:08:05;;;;;;;2.75;1.30;;;27.00;63.00;;;;;;10408181;28;20045;-40
2022/08/19 16:13:08;;;;;;;1.60;1.10;;;27.80;61.80;;;;;;10394333;28;20045;-41
2022/08/19 16:18:10;;;;;;;3.28;0.77;;;28.10;61.30;;;;;;10403647;28;20114;-41
2022/08/19 16:23:13;;;;;;;4.13;1.55;;;28.70;59.10;;;;;;10405260;28;20073;-41
2022/08/19 16:28:15;;;;;;;2.15;1.13;;;29.10;57.50;;;;;;10405134;28;20166;-38
2022/08/19 16:33:17;;;;;;;2.90;0.82;;;28.40;59.20;;;;;;10418208;28;20050;-39
2022/08/19 16:38:20;;;;;;;3.42;1.38;;;28.80;58.30;;;;;;10393441;28;20081;-40
2022/08/19 16:43:24;;;;;;;1.73;1.20;;;27.80;60.40;;;;;;10388955;28;20050;-39
2022/08/19 16:48:28;;;;;;;0.95;0.70;;;27.20;62.40;;;;;;10402221;28;20056;-40
2022/08/19 16:53:31;;;;;;;3.33;1.00;;;28.40;59.10;;;;;;10396052;28;20050;-41
2022/08/19 16:58:34;;;;;;;2.92;1.40;;;28.30;59.30;;;;;;10404241;28;20492;-31
2022/08/19 17:03:38;;;;;;;2.50;1.35;;;28.30;59.10;;;;;;10405223;28;20103;-36
2022/08/19 17:08:42;;;;;;;4.00;1.42;;;27.90;60.00;;;;;;10398229;28;20109;-42
2022/08/19 17:13:44;;;;;;;2.00;1.10;;;28.30;58.90;;;;;;10397934;28;20521;-42
2022/08/19 17:18:46;;;;;;;1.48;1.30;;;28.40;58.40;;;;;;10401639;28;20057;-38
2022/08/19 17:23:49;;;;;;;1.13;0.80;;;28.50;58.80;;;;;;10395236;28;20490;-43
2022/08/19 17:28:53;;;;;;;1.65;1.30;;;28.50;58.50;;;;;;10395218;28;20049;-40
2022/08/19 17:33:57;;;;;;;6.60;2.97;;;28.70;58.10;;;;;;10383286;28;20128;-42
2022/08/19 17:39:04;;;;;;;9.55;3.03;;;27.90;60.00;;;;;;10392167;28;20115;-36
2022/08/19 17:44:06;;;;;;;9.43;3.90;;;28.00;60.10;;;;;;10392692;28;20471;-35
2022/08/19 17:49:08;;;;;;;10.95;3.65;;;27.90;60.30;;;;;;10395777;28;20043;-33
2022/08/19 17:54:14;;;;;;;6.45;2.55;;;28.70;60.20;;;;;;10387380;28;20049;-34
2022/08/19 17:59:16;;;;;;;6.43;2.00;;;28.50;59.30;;;;;;10374153;28;20054;-34
2022/08/19 18:04:18;;;;;;;4.70;1.95;;;28.30;59.40;;;;;;10391654;28;20099;-33
2022/08/19 18:09:22;;;;;;;5.63;1.58;;;28.40;60.00;;;;;;10390282;28;20526;-35
2022/08/19 18:14:27;;;;;;;5.75;1.58;;;28.20;59.80;;;;;;10397666;28;20461;-33
2022/08/19 18:19:29;;;;;;;4.68;1.40;;;28.50;58.60;;;;;;10402131;28;20657;-33
2022/08/19 18:24:32;;;;;;;5.10;1.33;;;28.70;59.20;;;;;;10395112;28;20063;-34
2022/08/19 18:29:36;;;;;;;3.92;1.33;;;28.80;58.80;;;;;;10399608;28;20056;-34
2022/08/19 18:34:39;;;;;;;3.33;1.30;;;28.70;58.90;;;;;;10397404;28;20108;-33
2022/08/19 18:50:22;;;;;;;4.22;1.17;;;28.40;60.00;;;;;;10405884;28;20719;-34
2022/08/19 18:55:27;;;;;;;4.75;1.10;;;28.10;60.10;;;;;;10409267;28;20076;-33
2022/08/19 19:00:29;;;;;;;5.07;1.40;;;28.60;59.30;;;;;;10403239;28;20045;-34
2022/08/19 19:05:31;;;;;;;3.10;0.90;;;28.40;59.20;;;;;;10401413;28;20200;-34
2022/08/19 19:10:35;;;;;;;2.03;0.98;;;28.50;59.40;;;;;;10406154;28;20144;-34
2022/08/19 19:15:38;;;;;;;4.20;1.20;;;28.50;59.50;;;;;;10396808;28;20461;-33
2022/08/19 19:20:40;;;;;;;4.47;1.40;;;28.80;58.70;;;;;;10384365;28;20050;-35
2022/08/19 19:25:44;;;;;;;11.18;1.45;;;28.80;58.50;;;;;;10395436;28;20041;-34
2022/08/19 19:30:46;;;;;;;8.73;1.42;;;28.80;58.50;;;;;;10415894;28;20104;-33
2022/08/19 19:35:47;;;;;;;12.98;1.63;;;28.70;58.90;;;;;;10404747;28;20104;-34
2022/08/19 19:40:50;;;;;;;7.93;1.60;;;28.60;58.90;;;;;;10391951;28;20049;-32
2022/08/19 19:45:52;;;;;;;10.15;2.72;;;28.80;58.50;;;;;;10411053;28;20069;-33
2022/08/19 19:50:54;;;;;;;11.60;1.40;;;28.80;58.50;;;;;;10413249;28;20041;-35
2022/08/19 19:55:58;;;;;;;7.38;1.33;;;28.70;58.70;;;;;;10395715;28;20057;-34
2022/08/19 20:01:01;;;;;;;8.82;1.60;;;28.70;58.60;;;;;;10404052;28;20072;-34
2022/08/19 20:06:03;;;;;;;3.72;1.20;;;28.20;59.80;;;;;;10406995;28;20046;-34
2022/08/19 20:11:07;;;;;;;5.60;1.13;;;28.30;59.50;;;;;;10414192;28;20482;-30
2022/08/19 20:16:09;;;;;;;4.53;0.88;;;28.60;58.80;;;;;;10394018;28;20050;-33
2022/08/19 20:21:12;;;;;;;2.17;0.90;;;28.60;58.80;;;;;;10400858;28;20053;-32
2022/08/19 20:26:19;;;;;;;4.47;1.10;;;26.60;64.20;;;;;;10411097;28;20100;-35
2022/08/19 20:31:21;;;;;;;5.82;1.00;;;27.80;61.00;;;;;;10410952;28;20053;-32
2022/08/19 20:36:23;;;;;;;6.68;1.45;;;28.40;59.40;;;;;;10402151;28;20046;-32
2022/08/19 20:41:27;;;;;;;6.30;1.40;;;28.40;59.30;;;;;;10404419;28;20087;-33
2022/08/19 20:46:29;;;;;;;5.30;1.08;;;28.50;59.10;;;;;;10399143;28;20045;-33
2022/08/19 20:51:31;;;;;;;5.40;0.95;;;28.50;59.10;;;;;;10395617;28;20406;-33
2022/08/19 20:56:34;;;;;;;8.75;1.38;;;28.50;59.10;;;;;;10405385;28;20056;-32
2022/08/19 21:01:36;;;;;;;2.97;1.00;;;28.50;59.00;;;;;;10394326;28;20049;-32
2022/08/19 21:06:39;;;;;;;5.50;1.42;;;28.50;58.90;;;;;;10404067;28;20071;-33
2022/08/19 21:11:42;;;;;;;5.43;0.80;;;28.50;58.90;;;;;;10387330;28;20053;-33
2022/08/19 21:16:45;;;;;;;5.30;0.90;;;28.40;59.00;;;;;;10400122;28;20054;-33
2022/08/19 21:21:48;;;;;;;2.47;0.77;;;28.40;59.00;;;;;;10391748;28;20084;-34
2022/08/19 21:26:51;;;;;;;2.83;1.02;;;28.50;59.00;;;;;;10406098;28;20042;-33
2022/08/19 21:31:53;;;;;;;4.00;0.88;;;28.40;59.00;;;;;;10402420;28;20488;-34
2022/08/19 21:36:54;;;;;;;1.67;0.50;;;28.40;59.00;;;;;;10389964;28;20459;-34
2022/08/19 21:41:58;;;;;;;5.32;1.15;;;28.40;59.00;;;;;;10403147;28;20061;-33
2022/08/19 21:47:00;;;;;;;0.98;0.40;;;28.40;59.10;;;;;;10368540;28;20140;-33
2022/08/19 21:52:01;;;;;;;1.48;0.57;;;28.40;59.10;;;;;;10389958;28;20132;-33
2022/08/19 21:57:06;;;;;;;2.45;0.60;;;28.30;59.10;;;;;;10400854;28;20132;-33
2022/08/19 22:02:09;;;;;;;0.65;0.50;;;28.30;59.10;;;;;;10403263;28;20040;-30
2022/08/19 22:07:13;;;;;;;1.52;0.75;;;28.30;59.10;;;;;;10404424;28;20053;-34
2022/08/19 22:12:24;;;;;;;1.27;0.73;;;28.30;59.10;;;;;;10393533;28;20049;-33
2022/08/19 22:17:27;;;;;;;0.50;0.30;;;28.20;59.10;;;;;;10389616;28;20049;-32
2022/08/19 22:22:32;;;;;;;1.27;0.55;;;28.20;59.20;;;;;;10399748;28;20049;-33
2022/08/19 22:27:36;;;;;;;2.10;0.73;;;28.20;59.20;;;;;;10408869;28;20477;-33
2022/08/19 22:32:38;;;;;;;1.13;0.50;;;28.20;59.20;;;;;;10398155;28;20065;-33
2022/08/19 22:37:40;;;;;;;1.70;0.50;;;28.20;59.30;;;;;;10397476;28;20049;-34
2022/08/19 22:42:43;;;;;;;0.40;0.40;;;28.10;59.30;;;;;;10396344;28;20140;-33
2022/08/19 22:47:45;;;;;;;1.33;0.50;;;28.10;59.30;;;;;;10407582;28;20931;-33
2022/08/19 22:52:47;;;;;;;1.25;0.47;;;28.10;59.40;;;;;;10405618;28;20124;-32
2022/08/19 22:57:52;;;;;;;1.02;0.30;;;28.10;59.30;;;;;;10406728;28;20565;-34
2022/08/19 23:02:55;;;;;;;0.68;0.30;;;28.10;59.50;;;;;;10401258;28;20129;-33
2022/08/19 23:07:57;;;;;;;0.88;0.25;;;28.00;59.40;;;;;;10404782;28;20483;-32
2022/08/19 23:13:00;;;;;;;0.43;0.35;;;28.00;59.50;;;;;;10401204;28;20463;-33
2022/08/19 23:18:04;;;;;;;0.95;0.30;;;28.00;59.40;;;;;;10407165;28;20087;-33
2022/08/19 23:23:09;;;;;;;1.02;0.40;;;28.00;59.50;;;;;;10402562;28;20053;-33
2022/08/19 23:33:34;;;;;;;0.50;0.30;;;27.90;59.50;;;;;;10413102;28;20453;-33
2022/08/19 23:38:36;;;;;;;1.20;0.40;;;27.90;59.60;;;;;;10406426;28;20585;-33
2022/08/19 23:43:40;;;;;;;1.73;0.40;;;27.90;59.60;;;;;;10411552;28;20704;-33
2022/08/19 23:48:42;;;;;;;1.08;0.40;;;27.90;59.60;;;;;;10403254;28;20067;-32
2022/08/19 23:53:44;;;;;;;1.48;0.60;;;27.90;59.50;;;;;;10400804;28;20441;-34
2022/08/19 23:58:47;;;;;;;2.85;0.90;;;27.80;59.60;;;;;;10407696;28;20104;-34
